createdAt,value
2022-11-12T00:01:04.780Z,89.35
2022-11-12T00:03:32.401Z,89.14
2022-11-12T00:06:00.040Z,89.30
2022-11-12T00:08:29.502Z,89.31
2022-11-12T00:10:57.399Z,89.26
2022-11-12T00:13:25.101Z,89.11
2022-11-12T00:15:52.721Z,89.04
2022-11-12T00:18:20.403Z,89.40
2022-11-12T00:20:48.024Z,88.99
2022-11-12T00:23:15.662Z,88.94
2022-11-12T00:25:44.609Z,89.35
2022-11-12T00:28:12.352Z,89.50
2022-11-12T00:30:41.442Z,88.86
2022-11-12T00:33:09.194Z,89.27
2022-11-12T00:35:37.752Z,89.44
2022-11-12T00:38:05.449Z,89.21
2022-11-12T00:40:33.136Z,88.75
2022-11-12T00:43:02.198Z,89.17
2022-11-12T00:45:29.821Z,88.84
2022-11-12T00:47:58.158Z,89.64
2022-11-12T00:50:26.589Z,88.75
2022-11-12T00:52:55.001Z,89.11
2022-11-12T00:55:22.856Z,88.82
2022-11-12T00:57:50.471Z,88.89
2022-11-12T01:00:22.495Z,88.89
2022-11-12T01:02:51.280Z,88.95
2022-11-12T01:05:20.126Z,88.75
2022-11-12T01:07:53.124Z,89.11
2022-11-12T01:10:23.438Z,89.14
2022-11-12T01:12:51.112Z,89.16
2022-11-12T01:15:20.189Z,89.58
2022-11-12T01:17:47.854Z,89.28
2022-11-12T01:20:15.501Z,89.93
2022-11-12T01:22:43.186Z,89.21
2022-11-12T01:25:10.841Z,89.74
2022-11-12T01:27:38.501Z,89.72
2022-11-12T01:30:07.287Z,89.39
2022-11-12T01:32:39.111Z,90.04
2022-11-12T01:35:07.731Z,89.92
2022-11-12T01:37:35.358Z,89.17
2022-11-12T01:40:03.020Z,89.63
2022-11-12T01:42:31.464Z,89.47
2022-11-12T01:44:59.373Z,89.22
2022-11-12T01:47:30.291Z,90.09
2022-11-12T01:50:02.294Z,89.98
2022-11-12T01:52:33.141Z,89.59
2022-11-12T01:55:06.017Z,90.20
2022-11-12T01:57:38.318Z,90.18
2022-11-12T02:00:10.744Z,89.77
2022-11-12T02:02:39.614Z,89.96
2022-11-12T02:05:11.712Z,90.20
2022-11-12T02:07:41.883Z,90.16
2022-11-12T02:10:10.893Z,90.47
2022-11-12T02:12:53.078Z,90.27
2022-11-12T02:15:20.785Z,90.37
2022-11-12T02:17:48.422Z,89.68
2022-11-12T02:20:17.475Z,90.21
2022-11-12T02:22:46.636Z,90.13
2022-11-12T02:25:17.827Z,89.88
2022-11-12T02:27:46.088Z,89.83
2022-11-12T02:30:14.007Z,90.68
2022-11-12T02:32:41.780Z,90.66
2022-11-12T02:35:09.604Z,90.55
2022-11-12T02:37:37.280Z,90.07
2022-11-12T02:40:08.583Z,89.77
2022-11-12T02:42:36.175Z,90.61
2022-11-12T02:45:04.094Z,89.87
2022-11-12T02:47:31.713Z,90.45
2022-11-12T02:49:59.336Z,90.09
2022-11-12T02:52:27.524Z,89.91
2022-11-12T02:54:55.162Z,90.29
2022-11-12T02:57:24.165Z,90.44
2022-11-12T02:59:51.917Z,90.09
2022-11-12T03:02:19.625Z,89.79
2022-11-12T03:04:49.571Z,90.55
2022-11-12T03:07:17.627Z,90.15
2022-11-12T03:09:45.359Z,90.12
2022-11-12T03:12:13.124Z,89.57
2022-11-12T03:14:42.110Z,89.88
2022-11-12T03:17:09.750Z,89.74
2022-11-12T03:19:37.365Z,90.66
2022-11-12T03:22:06.173Z,90.09
2022-11-12T03:24:33.792Z,89.64
2022-11-12T03:27:01.520Z,89.57
2022-11-12T03:29:29.149Z,89.85
2022-11-12T03:31:58.132Z,90.53
2022-11-12T03:34:25.730Z,90.05
2022-11-12T03:36:53.394Z,89.62
2022-11-12T03:39:21.016Z,89.84
2022-11-12T03:41:48.692Z,90.10
2022-11-12T03:44:16.305Z,90.90
2022-11-12T03:46:44.530Z,90.19
2022-11-12T03:49:13.588Z,90.56
2022-11-12T03:51:41.226Z,89.67
2022-11-12T03:54:08.900Z,90.66
2022-11-12T03:56:36.636Z,90.00
2022-11-12T03:59:04.583Z,90.58
2022-11-12T04:01:32.432Z,90.37
2022-11-12T04:04:00.203Z,90.44
2022-11-12T04:06:46.578Z,90.21
2022-11-12T04:09:14.456Z,90.21
2022-11-12T04:11:42.071Z,90.29
2022-11-12T04:14:08.733Z,90.95
2022-11-12T04:16:53.936Z,90.15
2022-11-12T04:19:35.457Z,90.75
2022-11-12T04:22:07.566Z,90.78
2022-11-12T04:24:55.131Z,90.81
2022-11-12T04:27:25.433Z,90.08
2022-11-12T04:30:11.707Z,90.72
2022-11-12T04:32:41.496Z,90.73
2022-11-12T04:35:09.921Z,90.07
2022-11-12T04:37:45.433Z,90.29
2022-11-12T04:40:32.914Z,89.99
2022-11-12T04:43:18.228Z,90.98
2022-11-12T04:45:48.511Z,90.39
2022-11-12T04:48:16.463Z,90.22
2022-11-12T04:50:45.680Z,90.39
2022-11-12T04:53:15.090Z,90.71
2022-11-12T04:55:42.856Z,90.58
2022-11-12T04:58:10.496Z,90.68
2022-11-12T05:00:38.134Z,89.82
2022-11-12T05:03:05.772Z,90.00
2022-11-12T05:05:34.245Z,90.40
2022-11-12T05:08:02.441Z,90.78
2022-11-12T05:10:31.653Z,90.86
2022-11-12T05:12:59.651Z,90.66
2022-11-12T05:15:27.445Z,90.05
2022-11-12T05:17:55.127Z,90.83
2022-11-12T05:20:22.865Z,90.55
2022-11-12T05:23:04.887Z,90.25
2022-11-12T05:25:35.308Z,90.00
2022-11-12T05:28:02.954Z,90.35
2022-11-12T05:30:30.629Z,89.89
2022-11-12T05:32:58.254Z,90.67
2022-11-12T05:35:25.944Z,90.68
2022-11-12T05:37:53.593Z,90.33
2022-11-12T05:40:21.260Z,89.96
2022-11-12T05:42:50.268Z,89.95
2022-11-12T05:45:17.878Z,90.74
2022-11-12T05:47:45.488Z,89.94
2022-11-12T05:50:13.130Z,90.06
2022-11-12T05:52:40.732Z,90.10
2022-11-12T05:55:09.056Z,90.72
2022-11-12T05:57:36.717Z,90.75
2022-11-12T06:00:06.937Z,90.81
2022-11-12T06:02:34.585Z,90.94
2022-11-12T06:05:02.437Z,90.91
2022-11-12T06:07:30.057Z,90.40
2022-11-12T06:09:57.689Z,91.16
2022-11-12T06:12:25.341Z,90.27
2022-11-12T06:14:52.972Z,90.51
2022-11-12T06:17:22.748Z,90.32
2022-11-12T06:19:50.391Z,91.12
2022-11-12T06:22:18.005Z,90.82
2022-11-12T06:24:45.637Z,90.53
2022-11-12T06:27:13.264Z,90.77
2022-11-12T06:29:40.888Z,90.88
2022-11-12T06:32:08.484Z,90.67
2022-11-12T06:34:37.775Z,90.62
2022-11-12T06:37:05.362Z,91.02
2022-11-12T06:39:33.053Z,90.96
2022-11-12T06:42:01.994Z,91.18
2022-11-12T06:44:29.809Z,91.07
2022-11-12T06:46:57.433Z,90.93
2022-11-12T06:49:25.100Z,90.99
2022-11-12T06:51:54.138Z,90.65
2022-11-12T06:54:21.868Z,90.53
2022-11-12T06:56:49.502Z,91.09
2022-11-12T06:59:17.650Z,90.66
2022-11-12T07:01:45.610Z,90.80
2022-11-12T07:04:13.261Z,90.79
2022-11-12T07:06:40.973Z,90.82
2022-11-12T07:09:10.104Z,90.69
2022-11-12T07:11:37.789Z,90.99
2022-11-12T07:14:06.741Z,90.71
2022-11-12T07:16:34.654Z,91.03
2022-11-12T07:19:02.475Z,90.80
2022-11-12T07:21:30.113Z,91.12
2022-11-12T07:23:57.780Z,90.66
2022-11-12T07:26:28.450Z,90.45
2022-11-12T07:28:56.784Z,90.94
2022-11-12T07:31:25.814Z,91.10
2022-11-12T07:33:53.789Z,91.08
2022-11-12T07:36:23.048Z,90.53
2022-11-12T07:38:53.571Z,90.42
2022-11-12T07:41:23.159Z,90.86
2022-11-12T07:43:53.593Z,91.04
2022-11-12T07:46:23.907Z,90.33
2022-11-12T07:48:51.764Z,90.16
2022-11-12T07:51:21.398Z,90.57
2022-11-12T07:53:52.680Z,90.80
2022-11-12T07:56:25.827Z,90.31
2022-11-12T07:58:54.790Z,90.83
2022-11-12T08:01:26.740Z,90.60
2022-11-12T08:03:54.467Z,90.37
2022-11-12T08:06:22.174Z,90.83
2022-11-12T08:08:53.096Z,90.01
2022-11-12T08:11:22.566Z,90.03
2022-11-12T08:13:50.485Z,90.54
2022-11-12T08:16:19.632Z,90.52
2022-11-12T08:18:47.436Z,90.15
2022-11-12T08:21:16.898Z,90.63
2022-11-12T08:23:44.800Z,89.84
2022-11-12T08:26:14.363Z,89.39
2022-11-12T08:28:42.285Z,89.54
2022-11-12T08:31:12.724Z,89.34
2022-11-12T08:33:42.240Z,89.11
2022-11-12T08:36:12.471Z,89.40
2022-11-12T08:38:40.569Z,89.22
2022-11-12T08:41:10.442Z,88.75
2022-11-12T08:43:38.500Z,88.48
2022-11-12T08:46:06.497Z,88.68
2022-11-12T08:48:35.117Z,88.62
2022-11-12T08:51:05.068Z,88.14
2022-11-12T08:53:32.935Z,88.44
2022-11-12T08:56:01.375Z,88.23
2022-11-12T08:58:29.649Z,87.98
2022-11-12T09:00:58.686Z,88.39
2022-11-12T09:03:27.498Z,88.46
2022-11-12T09:05:55.439Z,88.76
2022-11-12T09:08:26.623Z,89.10
2022-11-12T09:10:54.721Z,88.61
2022-11-12T09:13:22.494Z,88.01
2022-11-12T09:15:50.218Z,87.70
2022-11-12T09:18:19.279Z,87.56
2022-11-12T09:20:47.176Z,87.78
2022-11-12T09:23:17.666Z,87.06
2022-11-12T09:25:46.685Z,87.60
2022-11-12T09:28:16.382Z,87.16
2022-11-12T09:30:46.587Z,86.78
2022-11-12T09:33:14.760Z,86.53
2022-11-12T09:35:42.646Z,85.93
2022-11-12T09:38:10.352Z,85.68
2022-11-12T09:41:22.293Z,85.19
2022-11-12T09:43:53.728Z,85.07
2022-11-12T09:46:29.072Z,84.56
2022-11-12T09:49:03.513Z,84.28
2022-11-12T09:51:34.716Z,83.81
2022-11-12T09:54:13.578Z,82.86
2022-11-12T09:56:41.371Z,82.54
2022-11-12T09:59:13.891Z,82.20
2022-11-12T10:01:58.873Z,82.20
2022-11-12T10:05:20.044Z,81.96
2022-11-12T10:07:59.544Z,81.39
2022-11-12T10:10:39.260Z,80.37
2022-11-12T10:13:25.855Z,80.19
2022-11-12T10:16:26.296Z,79.84
2022-11-12T10:19:14.808Z,79.39
2022-11-12T10:21:51.545Z,79.02
2022-11-12T10:24:22.694Z,78.25
2022-11-12T10:26:51.268Z,77.53
2022-11-12T10:29:29.360Z,77.18
2022-11-12T10:31:58.392Z,76.82
2022-11-12T10:34:26.446Z,76.20
2022-11-12T10:36:57.409Z,75.75
2022-11-12T10:39:36.448Z,75.36
2022-11-12T10:42:07.108Z,74.98
2022-11-12T10:44:34.805Z,74.20
2022-11-12T10:47:24.220Z,73.18
2022-11-12T10:50:05.231Z,72.30
2022-11-12T10:52:33.395Z,72.20
2022-11-12T10:55:07.933Z,71.38
2022-11-12T10:57:35.607Z,70.56
2022-11-12T11:00:09.255Z,69.57
2022-11-12T11:02:38.288Z,68.67
2022-11-12T11:05:30.192Z,66.32
2022-11-12T11:07:58.121Z,67.79
2022-11-12T11:10:28.522Z,67.63
2022-11-12T11:13:20.939Z,64.17
2022-11-12T11:16:00.936Z,65.35
2022-11-12T11:18:32.036Z,65.38
2022-11-12T11:21:08.895Z,64.46
2022-11-12T11:23:43.469Z,62.90
2022-11-12T11:26:28.368Z,59.46
2022-11-12T11:29:07.872Z,60.07
2022-11-12T11:31:45.571Z,58.55
2022-11-12T11:34:28.310Z,56.54
2022-11-12T11:37:06.580Z,55.52
2022-11-12T11:39:43.089Z,54.98
2022-11-12T11:42:24.671Z,53.45
2022-11-12T11:45:01.031Z,53.02
2022-11-12T11:47:59.414Z,51.68
2022-11-12T11:50:29.411Z,51.14
2022-11-12T11:53:09.449Z,50.12
2022-11-12T11:55:45.962Z,50.56
2022-11-12T11:58:27.953Z,49.90
2022-11-12T12:01:04.493Z,49.81
2022-11-12T12:03:42.510Z,49.71
2022-11-12T12:06:23.292Z,48.21
2022-11-12T12:09:02.588Z,47.49
2022-11-12T12:11:36.267Z,47.17
2022-11-12T12:14:17.467Z,45.94
2022-11-12T12:16:52.954Z,46.08
2022-11-12T12:19:36.102Z,42.71
2022-11-12T12:22:10.999Z,44.76
2022-11-12T12:24:47.760Z,45.59
2022-11-12T12:27:20.290Z,45.21
2022-11-12T12:29:52.014Z,45.31
2022-11-12T12:32:25.727Z,43.98
2022-11-12T12:34:58.599Z,44.51
2022-11-12T12:37:37.397Z,41.65
2022-11-12T12:40:15.153Z,45.46
2022-11-12T12:42:48.262Z,45.83
2022-11-12T12:45:37.378Z,42.72
2022-11-12T12:48:08.266Z,44.88
2022-11-12T12:50:39.283Z,43.60
2022-11-12T12:53:18.906Z,42.21
2022-11-12T12:55:48.651Z,43.41
2022-11-12T12:58:18.545Z,42.92
2022-11-12T13:00:52.023Z,41.99
2022-11-12T13:03:50.609Z,39.77
2022-11-12T13:06:25.941Z,38.84
2022-11-12T13:08:59.201Z,41.81
2022-11-12T13:12:09.181Z,40.07
2022-11-12T13:15:10.952Z,39.45
2022-11-12T13:17:52.642Z,39.72
2022-11-12T13:20:39.381Z,40.61
2022-11-12T13:23:12.555Z,42.41
2022-11-12T13:25:41.621Z,42.86
2022-11-12T13:28:14.238Z,42.59
2022-11-12T13:31:00.143Z,40.91
2022-11-12T13:33:32.340Z,43.11
2022-11-12T13:36:24.092Z,41.51
2022-11-12T13:38:55.456Z,44.82
2022-11-12T13:41:45.813Z,45.78
2022-11-12T13:44:17.855Z,44.75
2022-11-12T13:46:46.665Z,45.31
2022-11-12T13:49:16.617Z,44.79
2022-11-12T13:51:46.508Z,45.06
2022-11-12T13:54:35.237Z,41.80
2022-11-12T13:57:28.716Z,41.85
2022-11-12T14:00:10.912Z,42.95
2022-11-12T14:02:41.688Z,44.87
2022-11-12T14:05:16.914Z,44.12
2022-11-12T14:07:55.143Z,44.06
2022-11-12T14:10:36.292Z,44.00
2022-11-12T14:13:20.875Z,44.65
2022-11-12T14:16:03.421Z,43.53
2022-11-12T14:18:43.374Z,44.30
2022-11-12T14:21:16.469Z,44.13
2022-11-12T14:23:46.711Z,43.25
2022-11-12T14:26:16.017Z,43.21
2022-11-12T14:28:44.988Z,43.16
2022-11-12T14:31:14.736Z,42.85
2022-11-12T14:33:42.390Z,43.21
2022-11-12T14:36:14.686Z,43.14
2022-11-12T14:38:46.990Z,43.36
2022-11-12T14:41:21.512Z,44.58
2022-11-12T14:44:10.905Z,46.76
2022-11-12T14:46:45.097Z,48.94
2022-11-12T14:49:26.145Z,48.65
2022-11-12T14:52:02.888Z,49.12
2022-11-12T14:54:33.332Z,50.11
2022-11-12T14:57:03.788Z,49.63
2022-11-12T14:59:33.832Z,50.85
2022-11-12T15:05:01.262Z,53.22
2022-11-12T15:07:32.236Z,53.81
2022-11-12T15:10:00.672Z,54.97
2022-11-12T15:12:32.523Z,55.59
2022-11-12T15:15:20.954Z,55.44
2022-11-12T15:17:48.754Z,56.61
2022-11-12T15:20:18.845Z,56.50
2022-11-12T15:22:51.721Z,56.71
2022-11-12T15:25:22.899Z,57.44
2022-11-12T15:27:51.028Z,58.14
2022-11-12T15:30:24.218Z,58.30
2022-11-12T15:32:52.501Z,59.05
2022-11-12T15:35:38.005Z,58.60
2022-11-12T15:38:08.915Z,60.21
2022-11-12T15:40:43.987Z,59.60
2022-11-12T15:43:15.442Z,60.03
2022-11-12T15:45:44.408Z,60.51
2022-11-12T15:48:13.297Z,60.77
2022-11-12T15:50:40.906Z,61.20
2022-11-12T15:53:08.425Z,59.26
2022-11-12T15:55:38.232Z,61.87
2022-11-12T15:58:07.398Z,62.32
2022-11-12T16:00:37.791Z,62.20
2022-11-12T16:03:14.396Z,62.16
2022-11-12T16:05:42.308Z,62.62
2022-11-12T16:08:10.252Z,63.28
2022-11-12T16:10:39.059Z,63.65
2022-11-12T16:13:08.120Z,63.50
2022-11-12T16:15:35.809Z,63.61
2022-11-12T16:18:05.892Z,61.07
2022-11-12T16:20:36.618Z,63.87
2022-11-12T16:23:04.828Z,64.04
2022-11-12T16:25:34.532Z,63.91
2022-11-12T16:28:02.897Z,63.82
2022-11-12T16:30:33.392Z,64.03
2022-11-12T16:33:02.265Z,64.23
2022-11-12T16:35:33.977Z,64.44
2022-11-12T16:38:03.032Z,64.61
2022-11-12T16:40:31.987Z,65.11
2022-11-12T16:42:59.617Z,65.16
2022-11-12T16:45:35.558Z,65.22
2022-11-12T16:48:11.934Z,65.17
2022-11-12T16:50:39.614Z,65.32
2022-11-12T16:53:08.426Z,63.40
2022-11-12T16:55:36.138Z,65.68
2022-11-12T16:58:06.398Z,64.76
2022-11-12T17:00:34.043Z,66.29
2022-11-12T17:03:01.703Z,66.26
2022-11-12T17:05:29.319Z,66.18
2022-11-12T17:07:58.389Z,66.44
2022-11-12T17:10:27.423Z,66.76
2022-11-12T17:12:55.093Z,66.68
2022-11-12T17:15:22.781Z,67.11
2022-11-12T17:17:50.397Z,67.47
2022-11-12T17:20:18.055Z,67.49
2022-11-12T17:22:45.701Z,67.33
2022-11-12T17:25:13.412Z,67.13
2022-11-12T17:27:42.407Z,67.18
2022-11-12T17:30:11.681Z,67.13
2022-11-12T17:32:39.297Z,67.06
2022-11-12T17:35:07.985Z,67.02
2022-11-12T17:37:35.624Z,66.90
2022-11-12T17:40:03.627Z,67.35
2022-11-12T17:42:31.244Z,67.45
2022-11-12T17:45:00.245Z,67.29
2022-11-12T17:47:28.921Z,67.32
2022-11-12T17:49:56.536Z,67.76
2022-11-12T17:52:24.170Z,67.96
2022-11-12T17:54:51.829Z,68.38
2022-11-12T17:57:19.511Z,68.67
2022-11-12T17:59:47.173Z,69.06
2022-11-12T18:02:16.138Z,69.29
2022-11-12T18:04:43.764Z,69.28
2022-11-12T18:07:11.454Z,69.54
2022-11-12T18:09:39.170Z,69.23
2022-11-12T18:12:07.033Z,69.59
2022-11-12T18:14:34.502Z,68.86
2022-11-12T18:17:02.396Z,69.85
2022-11-12T18:19:31.605Z,69.52
2022-11-12T18:21:59.851Z,70.14
2022-11-12T18:24:27.558Z,70.59
2022-11-12T18:26:55.270Z,70.40
2022-11-12T18:29:22.946Z,70.52
2022-11-12T18:31:50.601Z,70.63
2022-11-12T18:34:18.256Z,70.50
2022-11-12T18:36:47.285Z,70.73
2022-11-12T18:39:15.355Z,70.79
2022-11-12T18:41:43.043Z,71.03
2022-11-12T18:44:10.783Z,71.29
2022-11-12T18:46:38.503Z,71.34
2022-11-12T18:49:06.371Z,71.54
2022-11-12T18:51:33.853Z,71.56
2022-11-12T18:54:02.820Z,71.99
2022-11-12T18:56:30.477Z,72.19
2022-11-12T18:58:58.119Z,71.88
2022-11-12T19:01:26.160Z,71.93
2022-11-12T19:03:56.406Z,71.65
2022-11-12T19:06:24.777Z,72.08
2022-11-12T19:08:58.505Z,71.89
2022-11-12T19:11:27.744Z,72.54
2022-11-12T19:13:56.192Z,72.09
2022-11-12T19:16:24.464Z,72.19
2022-11-12T19:18:53.011Z,72.20
2022-11-12T19:21:22.562Z,71.64
2022-11-12T19:23:53.972Z,71.74
2022-11-12T19:26:23.259Z,72.21
2022-11-12T19:28:52.731Z,71.86
2022-11-12T19:31:22.064Z,71.90
2022-11-12T19:33:50.055Z,71.84
2022-11-12T19:36:18.503Z,72.16
2022-11-12T19:38:46.161Z,72.54
2022-11-12T19:41:19.391Z,72.57
2022-11-12T19:43:48.119Z,72.80
2022-11-12T19:46:17.027Z,72.74
2022-11-12T19:48:45.037Z,72.76
2022-11-12T19:51:13.223Z,72.90
2022-11-12T19:53:44.363Z,73.31
2022-11-12T19:56:13.730Z,72.80
2022-11-12T19:58:45.027Z,73.08
2022-11-12T20:01:14.856Z,73.25
2022-11-12T20:03:44.150Z,73.18
2022-11-12T20:06:13.898Z,73.56
2022-11-12T20:08:41.871Z,73.66
2022-11-12T20:11:09.357Z,73.68
2022-11-12T20:13:37.034Z,73.68
2022-11-12T20:16:09.014Z,73.69
2022-11-12T20:18:36.714Z,73.53
2022-11-12T20:21:06.358Z,73.46
2022-11-12T20:23:34.624Z,73.51
2022-11-12T20:26:03.925Z,74.09
2022-11-12T20:28:33.930Z,74.18
2022-11-12T20:31:03.624Z,74.56
2022-11-12T20:33:31.321Z,74.67
2022-11-12T20:36:06.904Z,74.82
2022-11-12T20:38:37.481Z,74.93
2022-11-12T20:41:05.643Z,74.72
2022-11-12T20:43:33.928Z,74.49
2022-11-12T20:46:01.910Z,74.69
2022-11-12T20:48:30.313Z,74.71
2022-11-12T20:51:23.356Z,74.90
2022-11-12T20:53:58.906Z,74.97
2022-11-12T20:56:28.150Z,75.17
2022-11-12T20:58:56.272Z,75.37
2022-11-12T21:01:25.884Z,75.48
2022-11-12T21:03:53.675Z,75.36
2022-11-12T21:06:24.648Z,75.36
2022-11-12T21:08:52.554Z,75.21
2022-11-12T21:11:22.286Z,75.29
2022-11-12T21:13:50.175Z,75.78
2022-11-12T21:16:17.831Z,75.73
2022-11-12T21:18:45.636Z,75.82
2022-11-12T21:21:15.054Z,75.96
2022-11-12T21:23:45.259Z,75.84
2022-11-12T21:26:14.628Z,75.61
2022-11-12T21:28:43.812Z,75.80
2022-11-12T21:31:13.474Z,76.07
2022-11-12T21:33:41.470Z,75.72
2022-11-12T21:36:15.842Z,75.89
2022-11-12T21:38:45.160Z,76.20
2022-11-12T21:41:14.549Z,75.91
2022-11-12T21:43:44.604Z,76.13
2022-11-12T21:46:14.952Z,75.93
2022-11-12T21:48:43.686Z,76.19
2022-11-12T21:51:12.572Z,76.66
2022-11-12T21:53:41.105Z,76.11
2022-11-12T21:56:12.923Z,76.01
2022-11-12T21:58:41.076Z,76.42
2022-11-12T22:01:09.268Z,76.67
2022-11-12T22:03:36.968Z,76.36
2022-11-12T22:06:05.537Z,76.76
2022-11-12T22:08:33.599Z,76.04
2022-11-12T22:11:03.285Z,76.33
2022-11-12T22:13:32.824Z,77.17
2022-11-12T22:16:04.684Z,76.81
2022-11-12T22:18:34.140Z,76.88
2022-11-12T22:21:03.699Z,76.40
2022-11-12T22:23:32.911Z,76.61
2022-11-12T22:26:01.013Z,76.41
2022-11-12T22:28:28.842Z,77.09
2022-11-12T22:31:05.021Z,76.57
2022-11-12T22:33:32.670Z,76.52
2022-11-12T22:36:02.394Z,76.78
2022-11-12T22:38:34.568Z,76.81
2022-11-12T22:41:03.757Z,76.64
2022-11-12T22:43:32.620Z,77.24
2022-11-12T22:46:06.304Z,77.22
2022-11-12T22:48:34.107Z,77.30
2022-11-12T22:51:02.794Z,77.14
2022-11-12T22:53:30.779Z,77.41
2022-11-12T22:56:02.830Z,76.94
2022-11-12T22:58:31.016Z,77.13
2022-11-12T23:00:58.798Z,77.08
2022-11-12T23:03:27.835Z,77.67
2022-11-12T23:05:59.416Z,77.58
2022-11-12T23:08:27.531Z,77.23
2022-11-12T23:10:55.634Z,77.48
2022-11-12T23:13:25.969Z,76.88
2022-11-12T23:15:53.784Z,77.18
2022-11-12T23:18:21.413Z,77.64
2022-11-12T23:20:50.696Z,77.46
2022-11-12T23:23:18.561Z,76.52
2022-11-12T23:25:46.272Z,77.87
2022-11-12T23:28:13.965Z,77.62
2022-11-12T23:30:41.571Z,77.28
2022-11-12T23:33:09.927Z,77.47
2022-11-12T23:35:37.572Z,76.72
2022-11-12T23:38:06.583Z,77.69
2022-11-12T23:40:34.246Z,77.86
2022-11-12T23:43:01.911Z,77.33
2022-11-12T23:45:29.545Z,77.57
2022-11-12T23:47:57.828Z,77.80
2022-11-12T23:50:25.486Z,77.65
2022-11-12T23:52:53.105Z,77.69
2022-11-12T23:55:22.083Z,78.00
2022-11-12T23:57:49.833Z,77.97
